Time;durP1;ratioP1;P1;durP2;ratioP2;P2;SDS_P1;SDS_P2;PMS_P1;PMS_P2;Temp;Humidity;BMP_temperature;BMP_pressure;BME280_temperature;BME280_humidity;BME280_pressure;Samples;Min_cycle;Max_cycle;Signal;HPM_P1;HPM_P2
2024/02/29 00:01:43;;;;;;;25.50;17.50;;;;;;;5.69;67.89;100256.38;4146380;28;20156;-68
2024/02/29 00:03:44;;;;;;;30.55;19.45;;;;;;;5.49;68.48;100256.91;4145462;28;20390;-69
2024/02/29 00:05:45;;;;;;;29.33;19.73;;;;;;;5.47;68.51;100259.69;4145516;28;20511;-69
2024/02/29 00:07:46;;;;;;;30.38;20.40;;;;;;;5.42;68.56;100254.72;4146605;28;20116;-69
2024/02/29 00:09:47;;;;;;;28.42;18.98;;;;;;;5.46;68.46;100247.38;4146785;28;20022;-70
2024/02/29 00:11:48;;;;;;;32.30;19.05;;;;;;;5.38;68.85;100258.53;4146923;28;20040;-69
2024/02/29 00:13:48;;;;;;;29.88;18.88;;;;;;;5.32;69.02;100256.28;4147200;28;20034;-69
2024/02/29 00:15:48;;;;;;;26.17;18.90;;;;;;;5.36;68.81;100260.44;4149712;28;20017;-71
2024/02/29 00:17:49;;;;;;;24.37;17.10;;;;;;;5.49;68.52;100263.09;4149952;28;20364;-70
2024/02/29 00:19:49;;;;;;;27.27;18.50;;;;;;;5.56;68.21;100261.69;4150232;28;20268;-70
2024/02/29 00:21:50;;;;;;;26.30;18.10;;;;;;;5.44;68.43;100260.75;4149512;28;20112;-70
2024/02/29 00:23:50;;;;;;;32.70;19.48;;;;;;;5.38;68.70;100263.84;4149655;28;20598;-69
2024/02/29 00:25:50;;;;;;;27.83;18.73;;;;;;;5.31;68.89;100259.91;4148104;28;20128;-69
2024/02/29 00:27:51;;;;;;;27.13;18.48;;;;;;;5.33;68.81;100252.69;4149992;28;20603;-68
2024/02/29 00:29:51;;;;;;;25.65;17.65;;;;;;;5.38;68.64;100255.88;4149889;28;20037;-68
2024/02/29 00:31:52;;;;;;;23.40;16.30;;;;;;;5.50;68.16;100254.19;4150142;28;20025;-69
2024/02/29 00:33:53;;;;;;;28.38;17.90;;;;;;;5.43;68.29;100253.75;4149693;28;20455;-68
2024/02/29 00:35:53;;;;;;;25.95;17.10;;;;;;;5.45;68.20;100248.34;4149414;28;20057;-68
2024/02/29 00:37:54;;;;;;;23.27;16.45;;;;;;;5.46;68.24;100248.25;4149418;28;20497;-68
2024/02/29 00:39:54;;;;;;;25.98;15.93;;;;;;;5.43;68.15;100239.66;4149699;28;20106;-69
2024/02/29 00:41:55;;;;;;;27.55;17.17;;;;;;;5.39;68.27;100236.34;4148837;28;20450;-68
2024/02/29 00:43:55;;;;;;;24.15;16.23;;;;;;;5.40;68.08;100240.69;4149062;28;20085;-68
2024/02/29 00:45:56;;;;;;;22.52;15.00;;;;;;;5.39;68.24;100233.69;4149196;28;20034;-68
2024/02/29 00:47:56;;;;;;;21.33;15.32;;;;;;;5.39;67.99;100228.41;4149307;28;20120;-69
2024/02/29 00:49:57;;;;;;;22.45;14.25;;;;;;;5.41;68.16;100236.25;4149284;28;20479;-68
2024/02/29 00:51:57;;;;;;;26.17;16.60;;;;;;;5.39;68.11;100224.91;4148643;28;20716;-69
2024/02/29 00:53:58;;;;;;;30.47;19.53;;;;;;;5.11;69.03;100232.94;4149146;28;20558;-70
2024/02/29 00:55:58;;;;;;;30.65;19.55;;;;;;;5.05;69.08;100228.09;4149222;28;20021;-69
2024/02/29 00:57:58;;;;;;;25.63;18.27;;;;;;;5.06;69.17;100229.78;4149055;28;20068;-70
2024/02/29 00:59:59;;;;;;;30.73;17.92;;;;;;;5.07;69.06;100226.19;4147824;28;20034;-69
2024/02/29 01:02:00;;;;;;;26.73;18.75;;;;;;;5.02;69.33;100222.97;4148969;28;20117;-69
2024/02/29 01:04:00;;;;;;;29.35;19.42;;;;;;;5.02;69.27;100217.69;4152407;28;20078;-70
2024/02/29 01:06:00;;;;;;;29.90;19.57;;;;;;;4.91;69.67;100221.06;4163428;28;20029;-69
2024/02/29 01:08:01;;;;;;;28.63;18.50;;;;;;;4.95;69.65;100216.41;4165428;28;20272;-69
2024/02/29 01:10:02;;;;;;;28.80;18.23;;;;;;;4.95;69.62;100217.28;4165281;28;20033;-71
2024/02/29 01:12:02;;;;;;;30.55;18.25;;;;;;;4.92;69.45;100216.59;4164496;28;20022;-69
2024/02/29 01:14:03;;;;;;;28.75;18.80;;;;;;;4.88;69.68;100223.91;4165411;28;20111;-68
2024/02/29 01:16:04;;;;;;;25.40;17.95;;;;;;;4.92;69.71;100213.97;4165391;28;20028;-68
2024/02/29 01:18:08;;;;;;;24.52;16.40;;;;;;;4.97;69.46;100220.66;4165627;28;20136;-68
2024/02/29 01:20:09;;;;;;;26.30;17.95;;;;;;;4.84;69.67;100214.50;4164794;28;20176;-68
2024/02/29 01:22:10;;;;;;;30.20;17.95;;;;;;;4.91;69.55;100205.19;4164963;28;20029;-68
2024/02/29 01:24:10;;;;;;;25.23;17.07;;;;;;;4.97;69.30;100207.41;4160288;28;20045;-68
2024/02/29 01:26:11;;;;;;;26.63;18.15;;;;;;;4.82;69.61;100211.94;4147445;28;20390;-68
2024/02/29 01:28:11;;;;;;;26.35;18.20;;;;;;;4.74;69.68;100208.97;4149033;28;20033;-68
2024/02/29 01:30:12;;;;;;;25.98;18.05;;;;;;;4.77;69.55;100202.63;4148847;28;20079;-69
2024/02/29 01:32:13;;;;;;;25.60;16.33;;;;;;;4.90;69.36;100197.34;4147244;28;20584;-70
2024/02/29 01:34:13;;;;;;;26.92;17.00;;;;;;;4.93;69.18;100191.81;4148548;28;20022;-68
2024/02/29 01:36:14;;;;;;;22.23;15.32;;;;;;;4.92;69.27;100185.69;4148667;28;20033;-69
2024/02/29 01:38:14;;;;;;;18.33;13.45;;;;;;;4.96;69.02;100184.50;4147379;28;20033;-68
2024/02/29 01:40:18;;;;;;;20.17;13.35;;;;;;;4.95;69.02;100184.63;4148630;28;20057;-70
2024/02/29 01:42:19;;;;;;;19.75;13.70;;;;;;;4.94;69.01;100188.22;4148144;28;20414;-68
2024/02/29 01:44:19;;;;;;;25.40;14.67;;;;;;;4.92;69.00;100176.88;4147877;28;20080;-68
2024/02/29 01:46:20;;;;;;;21.35;13.55;;;;;;;4.92;69.02;100175.09;4148290;28;20454;-66
2024/02/29 01:48:21;;;;;;;19.77;13.98;;;;;;;4.95;68.94;100180.19;4148118;28;20034;-70
2024/02/29 01:50:22;;;;;;;21.20;12.88;;;;;;;4.97;68.84;100177.41;4148443;28;20403;-69
2024/02/29 01:52:25;;;;;;;;;;;;;;;4.74;69.47;100171.88;4147270;28;20092;-68
2024/02/29 01:54:25;;;;;;;27.50;16.50;;;;;;;4.65;69.50;100169.84;4148113;28;19909;-68
2024/02/29 01:56:27;;;;;;;25.38;17.52;;;;;;;4.53;69.79;100174.19;4148469;28;20029;-69
2024/02/29 01:58:29;;;;;;;27.30;18.27;;;;;;;4.45;70.07;100172.03;4148358;28;20026;-69
2024/02/29 02:00:29;;;;;;;24.75;17.98;;;;;;;4.31;70.23;100169.47;4148504;28;20118;-68
2024/02/29 02:02:29;;;;;;;32.83;19.80;;;;;;;4.14;70.76;100168.78;4150816;28;20482;-68
2024/02/29 02:04:30;;;;;;;27.90;18.57;;;;;;;3.95;71.44;100163.84;4147682;28;20331;-68
2024/02/29 02:06:30;;;;;;;27.80;18.77;;;;;;;3.89;71.51;100173.00;4148161;28;20068;-68
2024/02/29 02:08:32;;;;;;;28.77;19.08;;;;;;;3.82;71.82;100170.88;4147960;28;20038;-69
2024/02/29 02:10:33;;;;;;;28.48;19.15;;;;;;;3.77;71.88;100165.88;4148024;28;20445;-68
2024/02/29 02:12:33;;;;;;;28.83;18.75;;;;;;;3.74;72.05;100163.44;4146379;28;20101;-68
2024/02/29 02:14:33;;;;;;;29.90;19.23;;;;;;;3.68;72.21;100164.66;4147877;28;20521;-68
2024/02/29 02:16:34;;;;;;;27.07;17.90;;;;;;;3.73;72.26;100157.28;4146271;28;20025;-71
2024/02/29 02:18:35;;;;;;;25.88;17.25;;;;;;;3.65;72.50;100166.66;4147421;28;20471;-70
2024/02/29 02:20:36;;;;;;;33.08;20.27;;;;;;;3.63;72.48;100164.13;4147687;28;20033;-71
2024/02/29 02:22:37;;;;;;;26.77;17.38;;;;;;;3.62;72.52;100164.19;4147306;28;20034;-69
2024/02/29 02:24:37;;;;;;;30.67;18.87;;;;;;;3.57;72.68;100165.34;4147678;28;20034;-68
2024/02/29 02:26:37;;;;;;;28.63;18.83;;;;;;;3.51;72.79;100151.66;4147994;28;20113;-71
2024/02/29 02:28:39;;;;;;;27.60;16.33;;;;;;;3.46;72.84;100166.94;4147727;28;20498;-71
2024/02/29 02:30:40;;;;;;;27.55;19.02;;;;;;;3.43;72.99;100158.28;4146245;28;20063;-69
2024/02/29 02:32:40;;;;;;;30.38;18.67;;;;;;;3.48;72.82;100151.84;4146479;28;20105;-71
2024/02/29 02:34:40;;;;;;;27.47;17.97;;;;;;;3.51;72.64;100156.97;4147802;28;20033;-70
2024/02/29 02:36:41;;;;;;;27.63;18.00;;;;;;;3.63;72.25;100153.53;4147473;28;20414;-71
2024/02/29 02:38:41;;;;;;;29.85;18.52;;;;;;;3.65;72.10;100156.09;4145362;28;20040;-70
2024/02/29 02:40:42;;;;;;;28.98;18.40;;;;;;;3.63;72.07;100157.97;4138938;28;20088;-71
2024/02/29 02:42:42;;;;;;;27.65;18.00;;;;;;;3.56;72.19;100153.09;4130581;28;20030;-70
2024/02/29 02:44:43;;;;;;;27.67;16.97;;;;;;;3.48;72.39;100152.72;4133180;28;20373;-68
2024/02/29 02:46:43;;;;;;;31.52;18.45;;;;;;;3.49;72.50;100148.28;4133568;28;20623;-71
2024/02/29 02:48:44;;;;;;;29.17;18.80;;;;;;;3.42;72.64;100155.72;4131280;28;20080;-68
2024/02/29 02:50:45;;;;;;;29.23;19.63;;;;;;;3.34;72.89;100142.16;4131371;28;20472;-70
2024/02/29 02:52:45;;;;;;;30.02;20.27;;;;;;;3.36;73.06;100140.25;4130691;28;20088;-71
2024/02/29 02:54:46;;;;;;;29.63;18.33;;;;;;;3.46;72.71;100144.03;4130665;28;20022;-70
2024/02/29 02:56:46;;;;;;;32.23;19.53;;;;;;;3.54;72.56;100138.28;4130730;28;20109;-70
2024/02/29 02:58:47;;;;;;;29.93;19.43;;;;;;;3.50;72.65;100137.59;4130597;28;20029;-71
2024/02/29 03:00:47;;;;;;;26.30;17.20;;;;;;;3.48;72.86;100134.22;4132384;28;20415;-69
2024/02/29 03:02:48;;;;;;;31.42;18.27;;;;;;;3.54;72.82;100125.06;4130315;28;20648;-71
2024/02/29 03:04:48;;;;;;;29.80;18.67;;;;;;;3.59;72.58;100122.94;4130411;28;20426;-70
2024/02/29 03:06:48;;;;;;;28.23;18.13;;;;;;;3.73;72.24;100119.41;4130466;28;20754;-68
2024/02/29 03:08:49;;;;;;;28.73;17.65;;;;;;;3.86;71.67;100116.81;4130785;28;20025;-72
2024/02/29 03:10:50;;;;;;;26.25;17.30;;;;;;;3.90;71.56;100115.69;4130548;28;20034;-70
2024/02/29 03:12:50;;;;;;;23.90;15.70;;;;;;;3.92;71.43;100120.88;4130310;28;20022;-69
2024/02/29 03:14:51;;;;;;;24.77;16.47;;;;;;;3.90;71.35;100116.53;4130726;28;20262;-70
2024/02/29 03:16:51;;;;;;;25.30;15.87;;;;;;;3.94;71.34;100116.31;4130209;28;20033;-69
2024/02/29 03:18:52;;;;;;;23.88;15.40;;;;;;;4.00;71.07;100114.13;4129437;28;20586;-71
2024/02/29 03:20:52;;;;;;;30.42;16.90;;;;;;;3.81;71.45;100111.00;4130469;28;20530;-69
2024/02/29 03:22:52;;;;;;;27.80;16.87;;;;;;;3.72;71.65;100115.94;4130411;28;20114;-70
2024/02/29 03:24:54;;;;;;;28.13;17.40;;;;;;;3.77;71.45;100113.00;4130360;28;20053;-71
2024/02/29 03:26:54;;;;;;;25.13;17.08;;;;;;;3.69;71.84;100108.19;4130093;28;20383;-69
2024/02/29 03:28:55;;;;;;;25.13;16.10;;;;;;;3.71;71.75;100106.31;4129231;28;20022;-67
2024/02/29 03:30:56;;;;;;;24.75;15.60;;;;;;;3.74;71.76;100105.25;4130165;28;20023;-69
2024/02/29 03:32:57;;;;;;;26.35;16.08;;;;;;;3.77;71.58;100118.28;4129970;28;20080;-69
2024/02/29 03:34:57;;;;;;;27.73;14.77;;;;;;;3.79;71.54;100100.50;4130300;28;20123;-70
2024/02/29 03:36:57;;;;;;;22.42;13.65;;;;;;;3.83;71.65;100101.16;4130325;28;20045;-71
2024/02/29 03:38:58;;;;;;;23.27;14.73;;;;;;;3.88;71.40;100099.06;4130698;28;20034;-69
2024/02/29 03:40:59;;;;;;;21.63;13.48;;;;;;;3.85;71.31;100105.41;4130367;28;20018;-68
2024/02/29 03:43:00;;;;;;;23.43;14.37;;;;;;;3.83;71.31;100096.72;4130404;28;20054;-68
2024/02/29 03:45:00;;;;;;;19.63;13.90;;;;;;;3.82;71.54;100096.81;4129328;28;20340;-68
2024/02/29 03:47:00;;;;;;;21.98;13.77;;;;;;;3.86;71.37;100099.16;4130205;28;20399;-68
2024/02/29 03:49:01;;;;;;;26.27;16.23;;;;;;;3.81;71.59;100098.59;4130636;28;20455;-68
2024/02/29 03:51:02;;;;;;;22.90;14.70;;;;;;;3.86;71.47;100090.38;4134200;28;20026;-68
2024/02/29 03:53:02;;;;;;;24.05;15.82;;;;;;;3.68;71.88;100087.16;4132398;28;20077;-70
2024/02/29 03:55:03;;;;;;;28.77;15.90;;;;;;;3.63;72.04;100090.09;4139455;28;20120;-68
2024/02/29 03:57:04;;;;;;;25.23;16.33;;;;;;;3.61;72.19;100091.97;4151032;28;20022;-67
2024/02/29 03:59:04;;;;;;;25.13;17.58;;;;;;;3.48;72.56;100089.28;4152515;28;20119;-70
2024/02/29 04:01:10;;;;;;;26.10;16.30;;;;;;;3.58;72.55;100093.03;4133828;28;20033;-69
2024/02/29 04:03:10;;;;;;;25.50;16.48;;;;;;;3.63;72.30;100095.38;4133000;28;20045;-68
2024/02/29 04:05:11;;;;;;;28.58;17.50;;;;;;;3.55;72.51;100090.56;4145785;28;20525;-67
2024/02/29 04:07:11;;;;;;;26.23;15.27;;;;;;;3.54;72.50;100096.81;4149536;28;20164;-69
2024/02/29 04:09:12;;;;;;;24.40;15.53;;;;;;;3.54;72.53;100085.41;4149338;28;20034;-67
2024/02/29 04:11:12;;;;;;;26.10;16.73;;;;;;;3.56;72.54;100087.00;4149606;28;20076;-68
2024/02/29 04:13:13;;;;;;;27.13;15.95;;;;;;;3.52;72.44;100080.19;4149335;28;20026;-71
2024/02/29 04:15:14;;;;;;;23.75;16.08;;;;;;;3.54;72.44;100083.59;4148671;28;20475;-67
2024/02/29 04:17:14;;;;;;;25.35;16.58;;;;;;;3.57;72.21;100080.75;4149404;28;20660;-67
2024/02/29 04:19:16;;;;;;;24.40;15.82;;;;;;;3.59;72.13;100078.84;4149700;28;20030;-69
2024/02/29 04:21:16;;;;;;;24.23;15.07;;;;;;;3.64;72.10;100075.06;4149351;28;20030;-67
2024/02/29 04:23:17;;;;;;;25.83;16.90;;;;;;;3.62;72.16;100076.94;4149210;28;20125;-68
2024/02/29 04:25:22;;;;;;;25.30;15.50;;;;;;;3.62;72.08;100088.38;4149571;28;20041;-68
2024/02/29 04:27:23;;;;;;;26.30;16.00;;;;;;;3.64;72.15;100080.34;4149378;28;20022;-68
2024/02/29 04:29:23;;;;;;;25.98;14.38;;;;;;;3.69;72.11;100079.09;4149842;28;20647;-69
2024/02/29 04:31:23;;;;;;;24.80;16.03;;;;;;;3.72;71.95;100081.56;4149822;28;20032;-69
2024/02/29 04:33:24;;;;;;;24.73;15.07;;;;;;;3.74;71.69;100081.44;4148985;28;20726;-69
2024/02/29 04:35:24;;;;;;;22.13;14.77;;;;;;;3.78;71.52;100080.28;4153263;28;20030;-67
2024/02/29 04:37:26;;;;;;;24.00;15.48;;;;;;;3.80;71.58;100083.69;4169233;28;20018;-69
2024/02/29 04:39:26;;;;;;;24.75;15.48;;;;;;;3.66;71.75;100079.28;4163757;28;20040;-67
2024/02/29 04:41:27;;;;;;;26.25;16.25;;;;;;;3.64;71.71;100075.91;4149654;28;20661;-69
2024/02/29 04:43:28;;;;;;;28.75;17.33;;;;;;;3.58;71.80;100066.59;4148954;28;20497;-68
2024/02/29 04:45:29;;;;;;;24.42;14.32;;;;;;;3.64;71.53;100069.78;4148929;28;20032;-68
2024/02/29 04:47:29;;;;;;;23.45;14.98;;;;;;;3.63;71.35;100071.59;4148548;28;20113;-68
2024/02/29 04:49:29;;;;;;;24.40;14.57;;;;;;;3.63;71.42;100068.06;4151522;28;20041;-69
2024/02/29 04:51:30;;;;;;;23.60;15.07;;;;;;;3.63;71.38;100062.78;4158474;28;20105;-68
2024/02/29 04:53:30;;;;;;;26.97;16.43;;;;;;;3.53;71.60;100063.38;4161344;28;20033;-69
2024/02/29 04:55:31;;;;;;;24.93;15.60;;;;;;;3.47;71.72;100060.28;4161774;28;20506;-69
2024/02/29 04:57:32;;;;;;;23.67;15.05;;;;;;;3.54;71.62;100049.22;4161741;28;20026;-69
2024/02/29 04:59:32;;;;;;;23.55;14.35;;;;;;;3.55;71.66;100061.50;4161637;28;20032;-70
2024/02/29 05:01:33;;;;;;;24.60;15.52;;;;;;;3.51;71.70;100056.50;4160771;28;20081;-69
2024/02/29 05:03:33;;;;;;;27.92;15.63;;;;;;;3.54;71.71;100059.78;4162253;28;20094;-68
2024/02/29 05:05:34;;;;;;;20.93;14.17;;;;;;;3.55;71.32;100050.06;4148817;28;20398;-68
2024/02/29 05:07:34;;;;;;;24.23;14.57;;;;;;;3.51;71.42;100056.50;4147885;28;20026;-68
2024/02/29 05:09:35;;;;;;;24.60;14.65;;;;;;;3.48;71.57;100054.06;4149166;28;20022;-68
2024/02/29 05:11:35;;;;;;;25.67;15.43;;;;;;;3.46;71.63;100058.59;4148636;28;20033;-68
2024/02/29 05:13:35;;;;;;;21.53;13.57;;;;;;;3.47;71.60;100047.06;4148877;28;20026;-67
2024/02/29 05:15:36;;;;;;;23.87;14.90;;;;;;;3.51;71.47;100045.94;4148711;28;20265;-68
2024/02/29 05:17:37;;;;;;;23.58;13.35;;;;;;;3.50;71.34;100047.72;4149087;28;20032;-69
2024/02/29 05:19:38;;;;;;;;;;;;;;;3.45;71.46;100046.34;4154681;28;20041;-69
2024/02/29 05:21:38;;;;;;;27.00;16.08;;;;;;;3.22;72.15;100046.84;4152386;28;20545;-68
2024/02/29 05:23:39;;;;;;;27.63;16.95;;;;;;;3.19;72.29;100049.69;4148999;28;20041;-68
2024/02/29 05:25:39;;;;;;;26.63;16.95;;;;;;;3.17;72.17;100048.94;4148576;28;20486;-69
2024/02/29 05:27:40;;;;;;;27.58;16.92;;;;;;;3.08;72.41;100046.88;4140723;28;20035;-67
2024/02/29 05:29:40;;;;;;;27.42;16.52;;;;;;;3.00;72.60;100038.59;4132352;28;20114;-69
2024/02/29 05:31:41;;;;;;;27.85;16.83;;;;;;;2.97;72.71;100043.13;4132015;28;20030;-69
2024/02/29 05:33:41;;;;;;;25.47;17.27;;;;;;;2.93;72.82;100043.41;4132319;28;20030;-69
2024/02/29 05:35:41;;;;;;;29.33;16.67;;;;;;;2.89;73.00;100040.13;4132099;28;20037;-69
2024/02/29 05:37:42;;;;;;;24.83;16.00;;;;;;;2.86;73.04;100037.66;4132427;28;20273;-69
2024/02/29 05:39:42;;;;;;;26.07;16.27;;;;;;;2.80;73.29;100041.53;4132564;28;20270;-69
2024/02/29 05:41:43;;;;;;;28.45;17.77;;;;;;;2.76;73.30;100036.53;4131924;28;20037;-69
2024/02/29 05:43:45;;;;;;;26.07;16.93;;;;;;;2.79;73.18;100031.06;4132376;28;20037;-69
2024/02/29 05:45:46;;;;;;;27.48;17.67;;;;;;;2.74;73.33;100028.72;4132362;28;20022;-69
2024/02/29 05:47:47;;;;;;;26.65;17.10;;;;;;;2.78;73.21;100029.38;4132054;28;20491;-69
2024/02/29 05:49:49;;;;;;;;;;;;;;;2.81;73.17;100018.63;4133308;28;20386;-69
2024/02/29 05:51:49;;;;;;;;;;;;;;;2.80;73.25;100024.84;4133726;28;19917;-69
2024/02/29 05:53:49;;;;;;;27.13;16.77;;;;;;;2.84;72.92;100018.41;4133094;28;19909;-69
2024/02/29 05:55:50;;;;;;;26.73;17.10;;;;;;;2.80;72.95;100022.19;4142128;28;20022;-70
2024/02/29 05:57:50;;;;;;;27.10;17.92;;;;;;;2.89;72.76;100026.91;4147285;28;20006;-70
2024/02/29 05:59:51;;;;;;;27.13;17.20;;;;;;;2.85;72.64;100016.63;4147416;28;20027;-70
2024/02/29 06:01:51;;;;;;;25.97;16.57;;;;;;;2.79;72.71;100020.50;4136947;28;20277;-69
2024/02/29 06:03:52;;;;;;;26.77;17.47;;;;;;;2.76;72.84;100018.03;4146921;28;20030;-69
2024/02/29 06:05:52;;;;;;;25.47;15.13;;;;;;;2.77;72.74;100023.25;4148677;28;20030;-68
2024/02/29 06:07:52;;;;;;;24.75;17.17;;;;;;;2.73;72.78;100015.63;4151859;28;20140;-71
2024/02/29 06:09:53;;;;;;;31.40;17.67;;;;;;;2.63;73.04;100016.19;4148331;28;20093;-71
2024/02/29 06:11:54;;;;;;;35.08;17.92;;;;;;;2.52;73.46;100018.63;4133441;28;20041;-68
2024/02/29 06:13:55;;;;;;;30.05;18.30;;;;;;;2.49;73.48;100016.16;4131629;28;20065;-70
2024/02/29 06:15:56;;;;;;;28.10;17.90;;;;;;;2.50;73.50;100016.06;4131397;28;20030;-68
2024/02/29 06:17:56;;;;;;;27.23;17.47;;;;;;;2.57;73.47;100011.25;4132814;28;20034;-68
2024/02/29 06:19:57;;;;;;;24.43;16.07;;;;;;;2.78;72.94;100008.25;4131901;28;20761;-68
2024/02/29 06:21:57;;;;;;;27.10;16.53;;;;;;;2.93;72.42;100007.28;4132153;28;20034;-69
2024/02/29 06:23:57;;;;;;;20.97;13.63;;;;;;;3.03;72.02;100012.84;4131708;28;20045;-70
2024/02/29 06:25:58;;;;;;;20.70;13.73;;;;;;;3.09;71.89;100003.69;4131336;28;20030;-68
2024/02/29 06:27:58;;;;;;;23.57;15.20;;;;;;;3.14;71.57;99998.94;4131094;28;20034;-68
2024/02/29 06:29:58;;;;;;;22.60;14.48;;;;;;;3.18;71.78;100003.09;4132348;28;20033;-69
2024/02/29 06:32:00;;;;;;;21.70;14.63;;;;;;;3.21;71.64;100002.88;4131799;28;20026;-68
2024/02/29 06:34:00;;;;;;;27.42;16.50;;;;;;;3.23;71.49;99997.50;4131757;28;20120;-70
2024/02/29 06:36:03;;;;;;;25.90;16.13;;;;;;;3.18;71.67;99994.28;4131937;28;20018;-69
2024/02/29 06:38:04;;;;;;;24.80;17.05;;;;;;;3.17;71.78;99993.47;4131333;28;20109;-70
2024/02/29 06:40:10;;;;;;;27.83;16.40;;;;;;;3.24;71.76;99991.28;4131099;28;20033;-68
2024/02/29 06:42:11;;;;;;;23.48;15.32;;;;;;;3.33;71.46;99987.19;4131241;28;20046;-69
2024/02/29 06:44:12;;;;;;;26.23;15.52;;;;;;;3.36;71.41;99986.97;4131818;28;20030;-68
2024/02/29 06:46:12;;;;;;;32.90;17.95;;;;;;;3.32;71.37;99980.19;4131693;28;20065;-69
2024/02/29 06:48:17;;;;;;;26.60;16.63;;;;;;;3.28;71.56;99972.47;4131340;28;20034;-69
2024/02/29 06:50:18;;;;;;;30.13;17.27;;;;;;;3.35;71.44;99978.22;4131462;28;20034;-69
2024/02/29 06:52:18;;;;;;;30.50;17.40;;;;;;;3.40;71.38;99976.13;4136962;28;20050;-69
2024/02/29 06:54:18;;;;;;;26.77;17.60;;;;;;;3.49;71.31;99973.81;4140003;28;20113;-68
2024/02/29 06:56:19;;;;;;;31.43;17.13;;;;;;;3.49;71.24;99966.75;4146462;28;20613;-69
2024/02/29 06:58:21;;;;;;;29.35;15.57;;;;;;;3.52;71.22;99969.16;4147437;28;20036;-68
2024/02/29 07:00:21;;;;;;;33.83;17.48;;;;;;;3.54;71.10;99969.09;4147577;28;20367;-69
2024/02/29 07:02:22;;;;;;;33.08;18.05;;;;;;;3.47;71.36;99981.00;4147318;28;20026;-69
2024/02/29 07:04:22;;;;;;;31.87;17.00;;;;;;;3.46;71.23;99972.22;4147569;28;20445;-68
2024/02/29 07:06:22;;;;;;;25.20;16.17;;;;;;;3.57;71.17;99966.22;4147216;28;20285;-70
2024/02/29 07:08:23;;;;;;;28.50;15.70;;;;;;;3.69;70.98;99970.69;4147161;28;20029;-69
2024/02/29 07:10:24;;;;;;;25.98;15.25;;;;;;;3.70;70.58;99967.09;4145687;28;20025;-70
2024/02/29 07:12:24;;;;;;;27.67;16.00;;;;;;;3.72;70.53;99965.22;4130676;28;20081;-69
2024/02/29 07:14:25;;;;;;;25.10;14.70;;;;;;;3.74;70.52;99959.81;4130777;28;20037;-69
2024/02/29 07:16:26;;;;;;;29.20;16.98;;;;;;;3.78;70.67;99960.44;4131102;28;20686;-69
2024/02/29 07:18:26;;;;;;;36.63;17.73;;;;;;;3.81;70.44;99960.25;4131022;28;20033;-69
2024/02/29 07:20:27;;;;;;;37.00;18.70;;;;;;;3.83;70.30;99958.31;4130662;28;20030;-69
2024/02/29 07:22:27;;;;;;;33.95;18.98;;;;;;;3.82;70.27;99961.94;4130198;28;20062;-69
2024/02/29 07:24:28;;;;;;;28.98;16.85;;;;;;;3.88;70.34;99959.72;4130166;28;20570;-70
2024/02/29 07:26:28;;;;;;;32.90;18.27;;;;;;;3.87;70.35;99962.47;4130877;28;20113;-69
2024/02/29 07:28:29;;;;;;;33.42;18.88;;;;;;;3.95;70.47;99951.38;4130488;28;20018;-68
2024/02/29 07:30:30;;;;;;;33.85;17.92;;;;;;;4.05;70.05;99952.44;4129363;28;20179;-69
2024/02/29 07:32:31;;;;;;;40.17;18.38;;;;;;;4.06;69.86;99954.97;4131093;28;20046;-70
2024/02/29 07:34:34;;;;;;;;;;;;;;;3.99;69.48;99959.00;4131569;28;20117;-69
2024/02/29 07:36:34;;;;;;;38.28;17.98;;;;;;;4.19;69.53;99954.16;4132318;28;19910;-70
2024/02/29 07:38:36;;;;;;;29.13;16.25;;;;;;;4.27;69.33;99956.25;4142886;28;20030;-70
2024/02/29 07:40:36;;;;;;;30.80;16.42;;;;;;;4.26;69.31;99955.41;4144222;28;20030;-69
2024/02/29 07:42:39;;;;;;;34.23;18.20;;;;;;;4.14;69.72;99959.75;4144939;28;20027;-68
2024/02/29 07:44:39;;;;;;;38.08;18.30;;;;;;;4.34;69.47;99958.38;4133039;28;20030;-69
2024/02/29 07:46:39;;;;;;;29.85;18.73;;;;;;;4.46;69.07;99961.94;4135169;28;20403;-69
2024/02/29 07:48:40;;;;;;;25.38;15.48;;;;;;;4.58;68.64;99964.69;4147106;28;20030;-70
2024/02/29 07:50:41;;;;;;;34.22;16.88;;;;;;;4.52;68.65;99958.88;4154649;28;20969;-69
2024/02/29 07:52:41;;;;;;;35.05;18.08;;;;;;;4.53;68.88;99957.91;4149780;28;20037;-70
2024/02/29 07:54:43;;;;;;;33.97;17.57;;;;;;;4.62;68.66;99953.78;4154308;28;20432;-69
2024/02/29 07:56:43;;;;;;;33.35;17.65;;;;;;;4.61;68.47;99946.78;4159951;28;20314;-70
2024/02/29 07:58:44;;;;;;;31.17;16.47;;;;;;;4.64;68.57;99964.25;4152164;28;20050;-69
2024/02/29 08:00:44;;;;;;;45.20;22.58;;;;;;;4.69;68.56;99956.84;4147398;28;20041;-69
2024/02/29 08:02:46;;;;;;;31.20;19.65;;;;;;;4.74;68.45;99954.69;4146780;28;20028;-68
2024/02/29 08:04:46;;;;;;;29.05;18.55;;;;;;;4.78;68.44;99956.19;4146700;28;20503;-70
2024/02/29 08:06:47;;;;;;;33.13;18.53;;;;;;;4.86;68.22;99957.44;4147120;28;20088;-70
2024/02/29 08:08:48;;;;;;;32.42;18.48;;;;;;;4.93;68.04;99951.59;4146795;28;20260;-68
2024/02/29 08:10:48;;;;;;;28.10;18.45;;;;;;;5.00;67.85;99950.19;4146986;28;20040;-70
2024/02/29 08:12:48;;;;;;;25.87;16.63;;;;;;;5.07;67.83;99945.28;4145764;28;20056;-68
2024/02/29 08:14:49;;;;;;;30.43;18.30;;;;;;;5.06;67.64;99945.38;4146953;28;20339;-69
2024/02/29 08:16:49;;;;;;;33.77;18.90;;;;;;;5.13;67.61;99944.00;4147217;28;20097;-68
2024/02/29 08:18:50;;;;;;;35.28;20.25;;;;;;;5.03;67.85;99943.81;4148164;28;20655;-70
2024/02/29 08:20:51;;;;;;;35.90;20.50;;;;;;;5.21;67.74;99951.38;4147660;28;20034;-69
2024/02/29 08:22:56;;;;;;;35.73;19.37;;;;;;;5.19;67.89;99945.34;4146757;28;20400;-69
2024/02/29 08:24:57;;;;;;;28.35;18.55;;;;;;;5.33;67.53;99944.34;4146646;28;20025;-70
2024/02/29 08:26:57;;;;;;;29.50;17.77;;;;;;;5.51;67.04;99935.00;4147836;28;20038;-68
2024/02/29 08:28:58;;;;;;;30.55;17.65;;;;;;;5.62;66.65;99937.69;4147095;28;20509;-69
2024/02/29 08:30:58;;;;;;;28.73;17.08;;;;;;;5.68;66.43;99931.06;4147067;28;20078;-68
2024/02/29 08:32:59;;;;;;;30.00;18.38;;;;;;;5.84;66.40;99932.56;4141835;28;20027;-70
2024/02/29 08:34:59;;;;;;;33.40;17.80;;;;;;;5.84;66.47;99932.56;4146557;28;20521;-69
2024/02/29 08:37:00;;;;;;;34.03;19.50;;;;;;;5.98;66.13;99939.47;4162018;28;20035;-70
2024/02/29 08:39:01;;;;;;;34.13;19.73;;;;;;;5.94;66.17;99931.75;4161469;28;20050;-68
2024/02/29 08:41:02;;;;;;;32.28;21.05;;;;;;;6.21;65.82;99925.28;4149581;28;20022;-70
2024/02/29 08:43:02;;;;;;;31.90;21.10;;;;;;;6.33;65.61;99927.97;4149292;28;20018;-70
2024/02/29 08:45:03;;;;;;;37.83;19.83;;;;;;;6.47;65.41;99925.03;4149609;28;20084;-70
2024/02/29 08:47:06;;;;;;;34.35;20.10;;;;;;;6.69;65.01;99918.91;4149652;28;20026;-70
2024/02/29 08:49:07;;;;;;;33.83;20.73;;;;;;;6.90;64.29;99912.78;4149079;28;20482;-68
2024/02/29 08:51:08;;;;;;;32.50;18.73;;;;;;;7.06;63.96;99906.25;4148432;28;20045;-69
2024/02/29 08:53:08;;;;;;;35.03;20.17;;;;;;;7.10;63.42;99899.69;4149083;28;20101;-70
2024/02/29 08:55:09;;;;;;;30.85;19.27;;;;;;;7.32;63.34;99896.13;4149584;28;20737;-69
2024/02/29 08:57:10;;;;;;;34.53;20.33;;;;;;;7.56;62.57;99889.72;4150730;28;20029;-70
2024/02/29 08:59:10;;;;;;;29.33;18.38;;;;;;;7.88;61.87;99879.00;4151154;28;20025;-71
2024/02/29 09:01:11;;;;;;;28.65;18.77;;;;;;;8.14;61.26;99877.72;4149864;28;20107;-70
2024/02/29 09:03:13;;;;;;;29.07;19.03;;;;;;;8.25;60.64;99880.31;4148892;28;20033;-69
2024/02/29 09:05:15;;;;;;;30.38;19.15;;;;;;;8.27;61.00;99878.34;4148738;28;20688;-70
2024/02/29 09:07:15;;;;;;;33.30;20.15;;;;;;;8.34;60.68;99873.31;4149949;28;20021;-69
2024/02/29 09:09:16;;;;;;;31.60;20.45;;;;;;;8.49;60.46;99871.16;4149594;28;20072;-69
2024/02/29 09:11:17;;;;;;;35.50;20.80;;;;;;;8.69;59.81;99866.75;4148280;28;20022;-69
2024/02/29 09:13:17;;;;;;;34.97;20.52;;;;;;;8.90;59.05;99859.47;4149084;28;20054;-69
2024/02/29 09:15:18;;;;;;;45.17;23.75;;;;;;;8.76;58.70;99859.00;4148077;28;20033;-69
2024/02/29 09:17:18;;;;;;;33.80;20.75;;;;;;;9.19;58.08;99852.47;4146506;28;20048;-70
2024/02/29 09:19:19;;;;;;;32.60;18.77;;;;;;;9.46;57.60;99849.06;4146710;28;20032;-70